sensor_id;sensor_type;location;lat;lon;timestamp;P1;durP1;ratioP1;P2;durP2;ratioP2
36747;SDS011;22716;51.556;5.080;2023-10-19T00:02:05;18.60;;;14.63;;
36747;SDS011;22716;51.556;5.080;2023-10-19T00:04:31;18.07;;;13.10;;
36747;SDS011;22716;51.556;5.080;2023-10-19T00:07:01;17.95;;;13.32;;
36747;SDS011;22716;51.556;5.080;2023-10-19T00:09:33;15.23;;;12.53;;
36747;SDS011;22716;51.556;5.080;2023-10-19T00:12:03;16.65;;;12.88;;
36747;SDS011;22716;51.556;5.080;2023-10-19T00:14:37;16.35;;;13.43;;
36747;SDS011;22716;51.556;5.080;2023-10-19T00:17:03;16.10;;;12.65;;
36747;SDS011;22716;51.556;5.080;2023-10-19T00:19:36;14.70;;;11.82;;
36747;SDS011;22716;51.556;5.080;2023-10-19T00:22:05;16.38;;;12.00;;
36747;SDS011;22716;51.556;5.080;2023-10-19T00:24:41;15.63;;;12.20;;
36747;SDS011;22716;51.556;5.080;2023-10-19T00:27:07;17.03;;;12.07;;
36747;SDS011;22716;51.556;5.080;2023-10-19T00:29:44;15.32;;;11.77;;
36747;SDS011;22716;51.556;5.080;2023-10-19T00:32:20;18.57;;;11.30;;
36747;SDS011;22716;51.556;5.080;2023-10-19T00:34:50;18.13;;;12.60;;
36747;SDS011;22716;51.556;5.080;2023-10-19T00:37:20;16.58;;;12.30;;
36747;SDS011;22716;51.556;5.080;2023-10-19T00:39:52;16.73;;;11.23;;
36747;SDS011;22716;51.556;5.080;2023-10-19T00:42:39;17.33;;;11.57;;
36747;SDS011;22716;51.556;5.080;2023-10-19T00:45:14;17.47;;;10.73;;
36747;SDS011;22716;51.556;5.080;2023-10-19T00:47:50;12.57;;;10.77;;
36747;SDS011;22716;51.556;5.080;2023-10-19T00:50:18;13.68;;;11.23;;
36747;SDS011;22716;51.556;5.080;2023-10-19T00:52:52;13.50;;;10.65;;
36747;SDS011;22716;51.556;5.080;2023-10-19T00:55:23;13.23;;;10.13;;
36747;SDS011;22716;51.556;5.080;2023-10-19T00:57:54;17.10;;;10.52;;
36747;SDS011;22716;51.556;5.080;2023-10-19T01:00:25;11.70;;;9.00;;
36747;SDS011;22716;51.556;5.080;2023-10-19T01:02:59;13.60;;;9.60;;
36747;SDS011;22716;51.556;5.080;2023-10-19T01:05:30;12.87;;;9.43;;
36747;SDS011;22716;51.556;5.080;2023-10-19T01:08:01;9.70;;;8.10;;
36747;SDS011;22716;51.556;5.080;2023-10-19T01:10:40;9.40;;;7.47;;
36747;SDS011;22716;51.556;5.080;2023-10-19T01:13:10;9.03;;;7.10;;
36747;SDS011;22716;51.556;5.080;2023-10-19T01:15:44;10.03;;;7.07;;
36747;SDS011;22716;51.556;5.080;2023-10-19T01:18:14;11.23;;;6.73;;
36747;SDS011;22716;51.556;5.080;2023-10-19T01:20:43;9.90;;;5.72;;
36747;SDS011;22716;51.556;5.080;2023-10-19T01:23:19;8.23;;;4.80;;
36747;SDS011;22716;51.556;5.080;2023-10-19T01:25:52;7.80;;;5.00;;
36747;SDS011;22716;51.556;5.080;2023-10-19T01:28:31;6.17;;;5.00;;
36747;SDS011;22716;51.556;5.080;2023-10-19T01:31:13;6.83;;;4.47;;
36747;SDS011;22716;51.556;5.080;2023-10-19T01:33:47;8.60;;;3.40;;
36747;SDS011;22716;51.556;5.080;2023-10-19T01:36:20;3.20;;;2.70;;
36747;SDS011;22716;51.556;5.080;2023-10-19T01:38:55;7.50;;;3.10;;
36747;SDS011;22716;51.556;5.080;2023-10-19T01:41:26;12.55;;;4.28;;
36747;SDS011;22716;51.556;5.080;2023-10-19T01:43:56;5.63;;;2.70;;
36747;SDS011;22716;51.556;5.080;2023-10-19T01:46:29;5.00;;;2.13;;
36747;SDS011;22716;51.556;5.080;2023-10-19T01:49:00;4.53;;;1.90;;
36747;SDS011;22716;51.556;5.080;2023-10-19T01:51:28;6.37;;;2.33;;
36747;SDS011;22716;51.556;5.080;2023-10-19T01:54:01;5.38;;;1.60;;
36747;SDS011;22716;51.556;5.080;2023-10-19T01:56:27;9.37;;;2.40;;
36747;SDS011;22716;51.556;5.080;2023-10-19T01:58:56;8.37;;;1.77;;
36747;SDS011;22716;51.556;5.080;2023-10-19T02:01:23;3.27;;;1.43;;
36747;SDS011;22716;51.556;5.080;2023-10-19T02:06:25;6.10;;;1.60;;
36747;SDS011;22716;51.556;5.080;2023-10-19T02:09:04;3.00;;;1.07;;
36747;SDS011;22716;51.556;5.080;2023-10-19T02:11:35;2.58;;;1.20;;
36747;SDS011;22716;51.556;5.080;2023-10-19T02:14:07;2.30;;;1.10;;
36747;SDS011;22716;51.556;5.080;2023-10-19T02:16:39;6.10;;;1.50;;
36747;SDS011;22716;51.556;5.080;2023-10-19T02:19:08;3.97;;;1.73;;
36747;SDS011;22716;51.556;5.080;2023-10-19T02:21:35;3.00;;;1.20;;
36747;SDS011;22716;51.556;5.080;2023-10-19T02:24:09;2.97;;;0.87;;
36747;SDS011;22716;51.556;5.080;2023-10-19T02:26:39;5.18;;;1.30;;
36747;SDS011;22716;51.556;5.080;2023-10-19T02:29:09;5.73;;;1.30;;
36747;SDS011;22716;51.556;5.080;2023-10-19T02:31:35;4.73;;;1.43;;
36747;SDS011;22716;51.556;5.080;2023-10-19T02:34:05;8.25;;;2.55;;
36747;SDS011;22716;51.556;5.080;2023-10-19T02:36:33;3.17;;;1.03;;
36747;SDS011;22716;51.556;5.080;2023-10-19T02:39:03;4.50;;;1.67;;
36747;SDS011;22716;51.556;5.080;2023-10-19T02:41:35;4.40;;;0.90;;
36747;SDS011;22716;51.556;5.080;2023-10-19T02:44:08;3.33;;;1.30;;
36747;SDS011;22716;51.556;5.080;2023-10-19T02:46:35;5.70;;;1.00;;
36747;SDS011;22716;51.556;5.080;2023-10-19T02:49:06;5.47;;;1.13;;
36747;SDS011;22716;51.556;5.080;2023-10-19T02:51:37;5.63;;;1.23;;
36747;SDS011;22716;51.556;5.080;2023-10-19T02:54:06;4.40;;;1.30;;
36747;SDS011;22716;51.556;5.080;2023-10-19T02:56:45;1.10;;;0.88;;
36747;SDS011;22716;51.556;5.080;2023-10-19T02:59:17;2.88;;;0.90;;
36747;SDS011;22716;51.556;5.080;2023-10-19T03:01:48;4.07;;;0.97;;
36747;SDS011;22716;51.556;5.080;2023-10-19T03:04:26;5.53;;;0.97;;
36747;SDS011;22716;51.556;5.080;2023-10-19T03:06:53;4.50;;;1.03;;
36747;SDS011;22716;51.556;5.080;2023-10-19T03:09:22;5.35;;;1.80;;
36747;SDS011;22716;51.556;5.080;2023-10-19T03:11:57;4.23;;;1.40;;
36747;SDS011;22716;51.556;5.080;2023-10-19T03:14:29;3.13;;;0.90;;
36747;SDS011;22716;51.556;5.080;2023-10-19T03:16:56;4.07;;;0.93;;
36747;SDS011;22716;51.556;5.080;2023-10-19T03:19:26;2.93;;;1.03;;
36747;SDS011;22716;51.556;5.080;2023-10-19T03:21:52;3.28;;;0.88;;
36747;SDS011;22716;51.556;5.080;2023-10-19T03:24:25;3.23;;;0.90;;
36747;SDS011;22716;51.556;5.080;2023-10-19T03:27:04;2.50;;;1.07;;
36747;SDS011;22716;51.556;5.080;2023-10-19T03:29:38;2.43;;;0.87;;
36747;SDS011;22716;51.556;5.080;2023-10-19T03:32:04;3.93;;;0.90;;
36747;SDS011;22716;51.556;5.080;2023-10-19T03:34:34;1.77;;;0.70;;
36747;SDS011;22716;51.556;5.080;2023-10-19T03:37:03;1.97;;;1.00;;
36747;SDS011;22716;51.556;5.080;2023-10-19T03:39:37;3.28;;;1.13;;
36747;SDS011;22716;51.556;5.080;2023-10-19T03:42:09;3.70;;;1.07;;
36747;SDS011;22716;51.556;5.080;2023-10-19T03:44:39;1.63;;;0.87;;
36747;SDS011;22716;51.556;5.080;2023-10-19T03:47:15;4.37;;;1.10;;
36747;SDS011;22716;51.556;5.080;2023-10-19T03:49:50;2.17;;;0.87;;
36747;SDS011;22716;51.556;5.080;2023-10-19T03:52:19;2.73;;;1.13;;
36747;SDS011;22716;51.556;5.080;2023-10-19T03:54:55;4.17;;;1.00;;
36747;SDS011;22716;51.556;5.080;2023-10-19T03:57:27;3.57;;;0.73;;
36747;SDS011;22716;51.556;5.080;2023-10-19T04:00:00;4.60;;;1.10;;
36747;SDS011;22716;51.556;5.080;2023-10-19T04:02:29;4.80;;;1.43;;
36747;SDS011;22716;51.556;5.080;2023-10-19T04:05:03;4.18;;;1.23;;
36747;SDS011;22716;51.556;5.080;2023-10-19T04:07:35;3.37;;;1.00;;
36747;SDS011;22716;51.556;5.080;2023-10-19T04:10:04;2.23;;;0.87;;
36747;SDS011;22716;51.556;5.080;2023-10-19T04:12:57;8.33;;;1.00;;
36747;SDS011;22716;51.556;5.080;2023-10-19T04:15:27;3.63;;;1.10;;
36747;SDS011;22716;51.556;5.080;2023-10-19T04:17:59;2.43;;;0.97;;
36747;SDS011;22716;51.556;5.080;2023-10-19T04:20:27;4.50;;;1.20;;
36747;SDS011;22716;51.556;5.080;2023-10-19T04:23:07;5.97;;;1.30;;
36747;SDS011;22716;51.556;5.080;2023-10-19T04:25:40;4.43;;;1.53;;
36747;SDS011;22716;51.556;5.080;2023-10-19T04:28:14;7.10;;;1.70;;
36747;SDS011;22716;51.556;5.080;2023-10-19T04:30:46;2.77;;;1.60;;
36747;SDS011;22716;51.556;5.080;2023-10-19T04:33:16;6.40;;;1.70;;
36747;SDS011;22716;51.556;5.080;2023-10-19T04:35:45;7.13;;;2.07;;
36747;SDS011;22716;51.556;5.080;2023-10-19T04:38:21;4.80;;;1.93;;
36747;SDS011;22716;51.556;5.080;2023-10-19T04:40:50;9.53;;;2.43;;
36747;SDS011;22716;51.556;5.080;2023-10-19T04:43:21;6.73;;;2.80;;
36747;SDS011;22716;51.556;5.080;2023-10-19T04:45:50;4.37;;;2.43;;
36747;SDS011;22716;51.556;5.080;2023-10-19T04:48:18;7.13;;;2.20;;
36747;SDS011;22716;51.556;5.080;2023-10-19T04:50:47;2.93;;;1.40;;
36747;SDS011;22716;51.556;5.080;2023-10-19T04:53:15;10.40;;;2.17;;
36747;SDS011;22716;51.556;5.080;2023-10-19T04:55:45;5.33;;;1.63;;
36747;SDS011;22716;51.556;5.080;2023-10-19T04:58:14;5.23;;;2.33;;
36747;SDS011;22716;51.556;5.080;2023-10-19T05:00:45;8.60;;;3.33;;
36747;SDS011;22716;51.556;5.080;2023-10-19T05:03:14;10.20;;;4.53;;
36747;SDS011;22716;51.556;5.080;2023-10-19T05:05:44;4.27;;;3.00;;
36747;SDS011;22716;51.556;5.080;2023-10-19T05:08:13;6.17;;;2.53;;
36747;SDS011;22716;51.556;5.080;2023-10-19T05:10:41;4.53;;;1.60;;
36747;SDS011;22716;51.556;5.080;2023-10-19T05:13:10;4.53;;;2.00;;
36747;SDS011;22716;51.556;5.080;2023-10-19T05:15:39;7.17;;;1.70;;
36747;SDS011;22716;51.556;5.080;2023-10-19T05:18:12;6.83;;;1.70;;
36747;SDS011;22716;51.556;5.080;2023-10-19T05:20:40;6.33;;;1.77;;
36747;SDS011;22716;51.556;5.080;2023-10-19T05:23:09;7.60;;;2.23;;
36747;SDS011;22716;51.556;5.080;2023-10-19T05:25:38;6.97;;;1.63;;
36747;SDS011;22716;51.556;5.080;2023-10-19T05:28:07;7.70;;;2.10;;
36747;SDS011;22716;51.556;5.080;2023-10-19T05:30:36;5.20;;;1.70;;
36747;SDS011;22716;51.556;5.080;2023-10-19T05:33:04;7.13;;;2.13;;
36747;SDS011;22716;51.556;5.080;2023-10-19T05:35:35;11.10;;;2.23;;
36747;SDS011;22716;51.556;5.080;2023-10-19T05:38:06;6.90;;;2.20;;
36747;SDS011;22716;51.556;5.080;2023-10-19T05:40:34;6.57;;;3.23;;
36747;SDS011;22716;51.556;5.080;2023-10-19T05:43:04;10.13;;;2.97;;
36747;SDS011;22716;51.556;5.080;2023-10-19T05:45:33;3.63;;;1.70;;
36747;SDS011;22716;51.556;5.080;2023-10-19T05:48:02;12.00;;;2.37;;
36747;SDS011;22716;51.556;5.080;2023-10-19T05:50:31;12.57;;;2.47;;
36747;SDS011;22716;51.556;5.080;2023-10-19T05:53:03;10.77;;;2.47;;
36747;SDS011;22716;51.556;5.080;2023-10-19T05:55:32;3.77;;;2.03;;
36747;SDS011;22716;51.556;5.080;2023-10-19T05:58:02;7.80;;;2.20;;
36747;SDS011;22716;51.556;5.080;2023-10-19T06:00:31;5.40;;;2.10;;
36747;SDS011;22716;51.556;5.080;2023-10-19T06:03:00;5.97;;;2.27;;
36747;SDS011;22716;51.556;5.080;2023-10-19T06:05:30;12.40;;;2.17;;
36747;SDS011;22716;51.556;5.080;2023-10-19T06:07:59;8.67;;;2.30;;
36747;SDS011;22716;51.556;5.080;2023-10-19T06:10:33;8.60;;;2.37;;
36747;SDS011;22716;51.556;5.080;2023-10-19T06:13:04;8.73;;;2.27;;
36747;SDS011;22716;51.556;5.080;2023-10-19T06:15:35;6.53;;;1.70;;
36747;SDS011;22716;51.556;5.080;2023-10-19T06:18:04;9.03;;;2.20;;
36747;SDS011;22716;51.556;5.080;2023-10-19T06:20:32;8.63;;;1.93;;
36747;SDS011;22716;51.556;5.080;2023-10-19T06:23:01;11.00;;;3.13;;
36747;SDS011;22716;51.556;5.080;2023-10-19T06:25:35;11.33;;;2.20;;
36747;SDS011;22716;51.556;5.080;2023-10-19T06:28:04;10.48;;;2.30;;
36747;SDS011;22716;51.556;5.080;2023-10-19T06:30:34;7.97;;;1.97;;
36747;SDS011;22716;51.556;5.080;2023-10-19T06:33:03;8.07;;;2.40;;
36747;SDS011;22716;51.556;5.080;2023-10-19T06:35:33;9.50;;;2.13;;
36747;SDS011;22716;51.556;5.080;2023-10-19T06:38:02;9.13;;;2.43;;
36747;SDS011;22716;51.556;5.080;2023-10-19T06:40:37;6.37;;;2.20;;
36747;SDS011;22716;51.556;5.080;2023-10-19T06:43:06;8.37;;;2.93;;
36747;SDS011;22716;51.556;5.080;2023-10-19T06:45:34;13.90;;;3.00;;
36747;SDS011;22716;51.556;5.080;2023-10-19T06:48:03;6.23;;;2.00;;
36747;SDS011;22716;51.556;5.080;2023-10-19T06:50:33;8.47;;;2.27;;
36747;SDS011;22716;51.556;5.080;2023-10-19T06:53:02;11.90;;;3.17;;
36747;SDS011;22716;51.556;5.080;2023-10-19T06:55:32;10.50;;;1.93;;
36747;SDS011;22716;51.556;5.080;2023-10-19T06:58:03;6.07;;;2.43;;
36747;SDS011;22716;51.556;5.080;2023-10-19T07:00:34;18.13;;;3.47;;
36747;SDS011;22716;51.556;5.080;2023-10-19T07:03:07;8.70;;;1.77;;
36747;SDS011;22716;51.556;5.080;2023-10-19T07:05:36;8.87;;;2.90;;
36747;SDS011;22716;51.556;5.080;2023-10-19T07:08:05;7.20;;;2.43;;
36747;SDS011;22716;51.556;5.080;2023-10-19T07:10:35;12.43;;;3.10;;
36747;SDS011;22716;51.556;5.080;2023-10-19T07:13:06;8.13;;;1.80;;
36747;SDS011;22716;51.556;5.080;2023-10-19T07:15:35;6.20;;;2.30;;
36747;SDS011;22716;51.556;5.080;2023-10-19T07:18:06;12.07;;;2.50;;
36747;SDS011;22716;51.556;5.080;2023-10-19T07:20:35;6.37;;;1.90;;
36747;SDS011;22716;51.556;5.080;2023-10-19T07:23:04;8.23;;;3.47;;
36747;SDS011;22716;51.556;5.080;2023-10-19T07:25:36;8.07;;;2.23;;
36747;SDS011;22716;51.556;5.080;2023-10-19T07:28:11;6.40;;;2.37;;
36747;SDS011;22716;51.556;5.080;2023-10-19T07:30:40;4.73;;;1.80;;
36747;SDS011;22716;51.556;5.080;2023-10-19T07:33:10;6.87;;;1.57;;
36747;SDS011;22716;51.556;5.080;2023-10-19T07:35:42;7.90;;;2.83;;
36747;SDS011;22716;51.556;5.080;2023-10-19T07:38:12;6.15;;;2.22;;
36747;SDS011;22716;51.556;5.080;2023-10-19T07:40:42;10.93;;;2.90;;
36747;SDS011;22716;51.556;5.080;2023-10-19T07:43:14;8.30;;;2.23;;
36747;SDS011;22716;51.556;5.080;2023-10-19T07:45:43;12.10;;;2.50;;
36747;SDS011;22716;51.556;5.080;2023-10-19T07:48:13;9.97;;;2.70;;
36747;SDS011;22716;51.556;5.080;2023-10-19T07:50:42;7.65;;;2.25;;
36747;SDS011;22716;51.556;5.080;2023-10-19T07:53:11;7.93;;;2.30;;
36747;SDS011;22716;51.556;5.080;2023-10-19T07:55:40;12.43;;;2.60;;
36747;SDS011;22716;51.556;5.080;2023-10-19T07:58:09;14.27;;;2.77;;
36747;SDS011;22716;51.556;5.080;2023-10-19T08:00:41;10.70;;;2.63;;
36747;SDS011;22716;51.556;5.080;2023-10-19T08:03:12;11.88;;;2.63;;
36747;SDS011;22716;51.556;5.080;2023-10-19T08:05:41;5.93;;;2.10;;
36747;SDS011;22716;51.556;5.080;2023-10-19T08:08:10;8.30;;;2.47;;
36747;SDS011;22716;51.556;5.080;2023-10-19T08:10:38;7.57;;;2.10;;
36747;SDS011;22716;51.556;5.080;2023-10-19T08:13:07;3.10;;;1.63;;
36747;SDS011;22716;51.556;5.080;2023-10-19T08:15:40;11.10;;;2.77;;
36747;SDS011;22716;51.556;5.080;2023-10-19T08:18:09;11.00;;;2.35;;
36747;SDS011;22716;51.556;5.080;2023-10-19T08:20:40;10.40;;;3.10;;
36747;SDS011;22716;51.556;5.080;2023-10-19T08:23:11;6.37;;;2.30;;
36747;SDS011;22716;51.556;5.080;2023-10-19T08:25:43;8.17;;;2.57;;
36747;SDS011;22716;51.556;5.080;2023-10-19T08:28:12;7.57;;;2.57;;
36747;SDS011;22716;51.556;5.080;2023-10-19T08:30:44;6.33;;;2.50;;
36747;SDS011;22716;51.556;5.080;2023-10-19T08:33:21;9.87;;;2.73;;
36747;SDS011;22716;51.556;5.080;2023-10-19T08:35:51;14.63;;;4.57;;
36747;SDS011;22716;51.556;5.080;2023-10-19T08:38:22;13.23;;;2.60;;
36747;SDS011;22716;51.556;5.080;2023-10-19T08:40:51;11.43;;;2.88;;
36747;SDS011;22716;51.556;5.080;2023-10-19T08:43:21;7.90;;;3.10;;
36747;SDS011;22716;51.556;5.080;2023-10-19T08:45:52;10.10;;;3.00;;
36747;SDS011;22716;51.556;5.080;2023-10-19T08:48:22;11.70;;;2.73;;
36747;SDS011;22716;51.556;5.080;2023-10-19T08:50:50;14.40;;;4.03;;
36747;SDS011;22716;51.556;5.080;2023-10-19T08:53:21;8.57;;;2.57;;
36747;SDS011;22716;51.556;5.080;2023-10-19T08:55:52;10.37;;;2.60;;
36747;SDS011;22716;51.556;5.080;2023-10-19T08:58:21;8.93;;;2.03;;
36747;SDS011;22716;51.556;5.080;2023-10-19T09:00:53;12.27;;;3.10;;
36747;SDS011;22716;51.556;5.080;2023-10-19T09:03:22;11.77;;;3.92;;
36747;SDS011;22716;51.556;5.080;2023-10-19T09:05:51;12.95;;;2.35;;
36747;SDS011;22716;51.556;5.080;2023-10-19T09:08:21;9.77;;;1.97;;
36747;SDS011;22716;51.556;5.080;2023-10-19T09:10:50;9.07;;;2.00;;
36747;SDS011;22716;51.556;5.080;2023-10-19T09:13:21;13.50;;;2.25;;
36747;SDS011;22716;51.556;5.080;2023-10-19T09:15:53;14.75;;;3.17;;
36747;SDS011;22716;51.556;5.080;2023-10-19T09:18:22;13.40;;;2.55;;
36747;SDS011;22716;51.556;5.080;2023-10-19T09:20:53;12.83;;;3.47;;
36747;SDS011;22716;51.556;5.080;2023-10-19T09:23:27;10.10;;;1.92;;
36747;SDS011;22716;51.556;5.080;2023-10-19T09:25:56;10.50;;;2.97;;
36747;SDS011;22716;51.556;5.080;2023-10-19T09:28:28;12.27;;;2.55;;
36747;SDS011;22716;51.556;5.080;2023-10-19T09:31:01;15.67;;;3.30;;
36747;SDS011;22716;51.556;5.080;2023-10-19T09:33:32;10.77;;;2.13;;
36747;SDS011;22716;51.556;5.080;2023-10-19T09:36:02;7.20;;;2.15;;
36747;SDS011;22716;51.556;5.080;2023-10-19T09:38:38;7.18;;;2.35;;
36747;SDS011;22716;51.556;5.080;2023-10-19T09:41:07;13.23;;;2.40;;
36747;SDS011;22716;51.556;5.080;2023-10-19T09:43:41;10.48;;;1.65;;
36747;SDS011;22716;51.556;5.080;2023-10-19T09:46:16;7.07;;;2.13;;
36747;SDS011;22716;51.556;5.080;2023-10-19T09:48:49;9.27;;;2.85;;
36747;SDS011;22716;51.556;5.080;2023-10-19T09:51:18;10.37;;;2.43;;
36747;SDS011;22716;51.556;5.080;2023-10-19T09:53:49;12.45;;;3.00;;
36747;SDS011;22716;51.556;5.080;2023-10-19T09:56:27;9.27;;;2.55;;
36747;SDS011;22716;51.556;5.080;2023-10-19T09:59:04;8.93;;;2.85;;
36747;SDS011;22716;51.556;5.080;2023-10-19T10:04:38;14.53;;;2.20;;
36747;SDS011;22716;51.556;5.080;2023-10-19T10:07:10;16.75;;;2.03;;
36747;SDS011;22716;51.556;5.080;2023-10-19T10:09:39;10.68;;;2.53;;
36747;SDS011;22716;51.556;5.080;2023-10-19T10:12:15;6.97;;;1.77;;
36747;SDS011;22716;51.556;5.080;2023-10-19T10:14:53;9.30;;;2.33;;
36747;SDS011;22716;51.556;5.080;2023-10-19T10:17:27;6.35;;;2.28;;
36747;SDS011;22716;51.556;5.080;2023-10-19T10:19:57;10.55;;;1.85;;
36747;SDS011;22716;51.556;5.080;2023-10-19T10:25:47;8.30;;;2.13;;
36747;SDS011;22716;51.556;5.080;2023-10-19T10:28:19;13.03;;;3.07;;
36747;SDS011;22716;51.556;5.080;2023-10-19T10:33:47;5.53;;;1.45;;
36747;SDS011;22716;51.556;5.080;2023-10-19T10:36:17;9.35;;;2.47;;
36747;SDS011;22716;51.556;5.080;2023-10-19T10:38:46;8.93;;;2.80;;
36747;SDS011;22716;51.556;5.080;2023-10-19T10:41:20;17.38;;;3.00;;
36747;SDS011;22716;51.556;5.080;2023-10-19T10:43:54;9.50;;;2.07;;
36747;SDS011;22716;51.556;5.080;2023-10-19T10:46:24;7.82;;;1.83;;
36747;SDS011;22716;51.556;5.080;2023-10-19T10:48:56;10.50;;;3.07;;
36747;SDS011;22716;51.556;5.080;2023-10-19T10:51:27;10.70;;;3.35;;
36747;SDS011;22716;51.556;5.080;2023-10-19T10:53:57;13.03;;;3.33;;
36747;SDS011;22716;51.556;5.080;2023-10-19T10:56:26;11.20;;;2.33;;
36747;SDS011;22716;51.556;5.080;2023-10-19T10:58:57;8.70;;;2.23;;
36747;SDS011;22716;51.556;5.080;2023-10-19T11:01:29;7.93;;;2.17;;
36747;SDS011;22716;51.556;5.080;2023-10-19T11:04:10;12.37;;;3.67;;
36747;SDS011;22716;51.556;5.080;2023-10-19T11:06:51;12.27;;;1.98;;
36747;SDS011;22716;51.556;5.080;2023-10-19T11:09:21;18.85;;;2.58;;
36747;SDS011;22716;51.556;5.080;2023-10-19T11:11:50;9.52;;;2.78;;
36747;SDS011;22716;51.556;5.080;2023-10-19T11:14:20;6.68;;;2.55;;
36747;SDS011;22716;51.556;5.080;2023-10-19T11:16:50;14.30;;;2.43;;
36747;SDS011;22716;51.556;5.080;2023-10-19T11:19:22;16.50;;;4.13;;
36747;SDS011;22716;51.556;5.080;2023-10-19T11:22:09;10.18;;;2.60;;
36747;SDS011;22716;51.556;5.080;2023-10-19T11:24:38;10.37;;;2.13;;
36747;SDS011;22716;51.556;5.080;2023-10-19T11:27:08;11.88;;;2.50;;
36747;SDS011;22716;51.556;5.080;2023-10-19T11:29:37;7.00;;;2.63;;
36747;SDS011;22716;51.556;5.080;2023-10-19T11:32:06;11.98;;;2.75;;
36747;SDS011;22716;51.556;5.080;2023-10-19T11:34:37;14.20;;;3.25;;
36747;SDS011;22716;51.556;5.080;2023-10-19T11:37:09;7.80;;;2.60;;
36747;SDS011;22716;51.556;5.080;2023-10-19T11:39:39;12.30;;;2.95;;
36747;SDS011;22716;51.556;5.080;2023-10-19T11:42:07;12.77;;;2.97;;
36747;SDS011;22716;51.556;5.080;2023-10-19T11:44:36;7.50;;;2.00;;
36747;SDS011;22716;51.556;5.080;2023-10-19T11:47:04;8.35;;;2.53;;
36747;SDS011;22716;51.556;5.080;2023-10-19T11:49:33;13.48;;;3.22;;
36747;SDS011;22716;51.556;5.080;2023-10-19T11:52:06;11.80;;;2.78;;
36747;SDS011;22716;51.556;5.080;2023-10-19T11:54:35;11.73;;;2.58;;
36747;SDS011;22716;51.556;5.080;2023-10-19T11:57:04;9.65;;;3.10;;
36747;SDS011;22716;51.556;5.080;2023-10-19T11:59:33;12.43;;;3.03;;
36747;SDS011;22716;51.556;5.080;2023-10-19T12:02:01;6.87;;;2.27;;
36747;SDS011;22716;51.556;5.080;2023-10-19T12:04:32;10.68;;;2.58;;
36747;SDS011;22716;51.556;5.080;2023-10-19T12:07:01;11.00;;;2.30;;
36747;SDS011;22716;51.556;5.080;2023-10-19T12:09:33;10.73;;;3.25;;
36747;SDS011;22716;51.556;5.080;2023-10-19T12:12:02;6.07;;;3.03;;
36747;SDS011;22716;51.556;5.080;2023-10-19T12:14:31;10.45;;;3.03;;
36747;SDS011;22716;51.556;5.080;2023-10-19T12:17:00;10.93;;;2.63;;
36747;SDS011;22716;51.556;5.080;2023-10-19T12:19:29;9.95;;;2.90;;
36747;SDS011;22716;51.556;5.080;2023-10-19T12:21:59;7.65;;;2.40;;
36747;SDS011;22716;51.556;5.080;2023-10-19T12:24:28;8.85;;;2.28;;
36747;SDS011;22716;51.556;5.080;2023-10-19T12:27:00;10.70;;;2.83;;
36747;SDS011;22716;51.556;5.080;2023-10-19T12:29:28;15.70;;;2.47;;
36747;SDS011;22716;51.556;5.080;2023-10-19T12:31:57;7.87;;;2.33;;
36747;SDS011;22716;51.556;5.080;2023-10-19T12:34:25;14.95;;;3.83;;
36747;SDS011;22716;51.556;5.080;2023-10-19T12:36:55;8.10;;;2.38;;
36747;SDS011;22716;51.556;5.080;2023-10-19T12:39:25;14.48;;;3.53;;
36747;SDS011;22716;51.556;5.080;2023-10-19T12:42:11;13.57;;;2.53;;
36747;SDS011;22716;51.556;5.080;2023-10-19T12:44:39;9.20;;;2.47;;
36747;SDS011;22716;51.556;5.080;2023-10-19T12:47:09;15.15;;;3.05;;
36747;SDS011;22716;51.556;5.080;2023-10-19T12:49:38;11.15;;;2.63;;
36747;SDS011;22716;51.556;5.080;2023-10-19T12:52:07;9.80;;;2.20;;
36747;SDS011;22716;51.556;5.080;2023-10-19T12:54:36;10.90;;;3.10;;
36747;SDS011;22716;51.556;5.080;2023-10-19T12:57:11;13.87;;;4.27;;
36747;SDS011;22716;51.556;5.080;2023-10-19T12:59:40;13.38;;;3.13;;
36747;SDS011;22716;51.556;5.080;2023-10-19T13:02:09;17.90;;;3.58;;
36747;SDS011;22716;51.556;5.080;2023-10-19T13:04:40;10.90;;;2.73;;
36747;SDS011;22716;51.556;5.080;2023-10-19T13:07:11;8.00;;;2.60;;
36747;SDS011;22716;51.556;5.080;2023-10-19T13:09:40;16.00;;;3.55;;
36747;SDS011;22716;51.556;5.080;2023-10-19T13:12:12;9.98;;;3.35;;
36747;SDS011;22716;51.556;5.080;2023-10-19T13:14:41;10.23;;;3.17;;
36747;SDS011;22716;51.556;5.080;2023-10-19T13:17:10;15.07;;;3.13;;
36747;SDS011;22716;51.556;5.080;2023-10-19T13:19:39;8.47;;;3.33;;
36747;SDS011;22716;51.556;5.080;2023-10-19T13:22:08;8.60;;;2.20;;
36747;SDS011;22716;51.556;5.080;2023-10-19T13:24:40;16.08;;;4.35;;
36747;SDS011;22716;51.556;5.080;2023-10-19T13:27:09;11.27;;;3.45;;
36747;SDS011;22716;51.556;5.080;2023-10-19T13:29:40;8.27;;;3.65;;
36747;SDS011;22716;51.556;5.080;2023-10-19T13:32:08;16.23;;;3.42;;
36747;SDS011;22716;51.556;5.080;2023-10-19T13:34:37;9.83;;;4.40;;
36747;SDS011;22716;51.556;5.080;2023-10-19T13:37:07;8.83;;;4.10;;
36747;SDS011;22716;51.556;5.080;2023-10-19T13:39:36;14.25;;;4.05;;
36747;SDS011;22716;51.556;5.080;2023-10-19T13:42:05;12.85;;;2.92;;
36747;SDS011;22716;51.556;5.080;2023-10-19T13:44:37;8.27;;;4.07;;
36747;SDS011;22716;51.556;5.080;2023-10-19T13:47:05;17.77;;;3.53;;
36747;SDS011;22716;51.556;5.080;2023-10-19T13:49:34;21.00;;;4.17;;
36747;SDS011;22716;51.556;5.080;2023-10-19T13:52:03;16.03;;;3.53;;
36747;SDS011;22716;51.556;5.080;2023-10-19T13:54:34;14.33;;;3.60;;
36747;SDS011;22716;51.556;5.080;2023-10-19T13:57:02;14.60;;;4.47;;
36747;SDS011;22716;51.556;5.080;2023-10-19T13:59:31;8.73;;;3.30;;
36747;SDS011;22716;51.556;5.080;2023-10-19T14:02:03;14.20;;;3.93;;
36747;SDS011;22716;51.556;5.080;2023-10-19T14:04:33;14.85;;;4.30;;
36747;SDS011;22716;51.556;5.080;2023-10-19T14:07:02;14.90;;;4.10;;
36747;SDS011;22716;51.556;5.080;2023-10-19T14:09:30;13.50;;;3.87;;
36747;SDS011;22716;51.556;5.080;2023-10-19T14:12:00;11.17;;;3.77;;
36747;SDS011;22716;51.556;5.080;2023-10-19T14:14:30;9.80;;;3.73;;
36747;SDS011;22716;51.556;5.080;2023-10-19T14:16:59;13.63;;;3.55;;
36747;SDS011;22716;51.556;5.080;2023-10-19T14:19:30;12.17;;;3.73;;
36747;SDS011;22716;51.556;5.080;2023-10-19T14:21:58;11.50;;;3.42;;
36747;SDS011;22716;51.556;5.080;2023-10-19T14:24:28;10.73;;;3.08;;
36747;SDS011;22716;51.556;5.080;2023-10-19T14:26:56;11.15;;;3.10;;
36747;SDS011;22716;51.556;5.080;2023-10-19T14:29:25;8.57;;;3.17;;
36747;SDS011;22716;51.556;5.080;2023-10-19T14:31:54;7.20;;;2.70;;
36747;SDS011;22716;51.556;5.080;2023-10-19T14:34:23;7.18;;;3.00;;
36747;SDS011;22716;51.556;5.080;2023-10-19T14:36:54;7.00;;;2.28;;
36747;SDS011;22716;51.556;5.080;2023-10-19T14:39:23;5.93;;;3.10;;
36747;SDS011;22716;51.556;5.080;2023-10-19T14:41:51;7.73;;;3.53;;
36747;SDS011;22716;51.556;5.080;2023-10-19T14:44:20;12.40;;;2.63;;
36747;SDS011;22716;51.556;5.080;2023-10-19T14:46:49;11.23;;;2.87;;
36747;SDS011;22716;51.556;5.080;2023-10-19T14:49:18;14.07;;;3.10;;
36747;SDS011;22716;51.556;5.080;2023-10-19T14:51:47;7.27;;;2.93;;
36747;SDS011;22716;51.556;5.080;2023-10-19T14:54:18;7.53;;;3.77;;
36747;SDS011;22716;51.556;5.080;2023-10-19T14:56:46;8.68;;;2.70;;
36747;SDS011;22716;51.556;5.080;2023-10-19T14:59:15;5.60;;;1.88;;
36747;SDS011;22716;51.556;5.080;2023-10-19T15:01:43;9.07;;;2.22;;
36747;SDS011;22716;51.556;5.080;2023-10-19T15:04:12;7.13;;;2.20;;
36747;SDS011;22716;51.556;5.080;2023-10-19T15:06:41;5.53;;;2.22;;
36747;SDS011;22716;51.556;5.080;2023-10-19T15:09:09;5.77;;;2.10;;
36747;SDS011;22716;51.556;5.080;2023-10-19T15:11:43;4.87;;;1.93;;
36747;SDS011;22716;51.556;5.080;2023-10-19T15:14:12;11.17;;;2.43;;